Time,TemperatureF,DewpointF,PressureIn,WindDirection,WindDirectionDegrees,WindSpeedMPH,WindSpeedGustMPH,Humidity,HourlyPrecipIn,Conditions,Clouds,dailyrainin,SolarRadiationWatts/m^2,SoftwareType,DateUTC
2013-05-23 00:02:00,64.9,58.9,29.89,SSE,166,0.5,3.5,81,0.00,CLR,,0.00,0.0,WeatherDisplay:10.37,2013-05-23 05:02:00,
2013-05-23 00:07:00,64.2,58.6,29.89,SSE,166,0.0,0.0,82,0.00,CLR,,0.00,0.0,WeatherDisplay:10.37,2013-05-23 05:07:00,
2013-05-23 00:12:00,63.9,58.6,29.88,SSE,166,0.8,2.3,83,0.00,CLR,,0.00,0.0,WeatherDisplay:10.37,2013-05-23 05:12:00,
2013-05-23 00:17:00,63.5,58.6,29.89,SSE,166,0.0,0.0,84,0.00,CLR,,0.00,0.0,WeatherDisplay:10.37,2013-05-23 05:17:00,
2013-05-23 00:22:00,63.1,58.5,29.90,SSE,166,0.0,0.0,85,0.00,CLR,,0.00,0.0,WeatherDisplay:10.37,2013-05-23 05:22:00,
2013-05-23 00:27:00,62.9,58.6,29.89,SSE,166,0.0,0.0,86,0.00,CLR,,0.00,0.0,WeatherDisplay:10.37,2013-05-23 05:27:00,
2013-05-23 00:32:00,63.4,58.8,29.89,SSE,166,1.1,3.5,85,0.00,CLR,,0.00,0.0,WeatherDisplay:10.37,2013-05-23 05:32:00,
2013-05-23 00:37:00,63.6,58.7,29.89,SSE,166,0.4,2.3,84,0.00,CLR,,0.00,0.0,WeatherDisplay:10.37,2013-05-23 05:37:00,
2013-05-23 00:42:00,63.5,58.6,29.89,SSE,166,0.1,1.1,84,0.00,CLR,,0.00,0.0,WeatherDisplay:10.37,2013-05-23 05:42:00,
2013-05-23 00:47:00,63.5,58.9,29.89,SSE,166,0.1,1.1,85,0.00,CLR,,0.00,0.0,WeatherDisplay:10.37,2013-05-23 05:47:00,
2013-05-23 00:52:00,63.1,58.5,29.89,SSE,166,0.0,0.0,85,0.00,CLR,,0.00,0.0,WeatherDisplay:10.37,2013-05-23 05:52:00,
2013-05-23 00:57:00,62.9,58.6,29.89,SSE,166,0.1,1.1,86,0.00,CLR,,0.00,0.0,WeatherDisplay:10.37,2013-05-23 05:57:00,
2013-05-23 01:02:00,62.9,58.6,29.89,SSE,166,0.0,0.0,86,0.00,CLR,,0.00,0.0,WeatherDisplay:10.37,2013-05-23 06:02:00,
2013-05-23 01:07:00,62.7,58.8,29.89,SSE,166,0.0,0.0,87,0.00,CLR,,0.00,0.0,WeatherDisplay:10.37,2013-05-23 06:07:00,
2013-05-23 01:12:00,62.6,58.7,29.89,SSE,166,0.0,0.0,87,0.00,CLR,,0.00,0.0,WeatherDisplay:10.37,2013-05-23 06:12:00,
2013-05-23 01:17:00,62.7,58.8,29.89,SSE,166,0.2,1.1,87,0.00,CLR,,0.00,0.0,WeatherDisplay:10.37,2013-05-23 06:17:00,
2013-05-23 01:22:00,62.5,58.6,29.89,SSE,166,0.3,1.1,87,0.00,CLR,,0.00,0.0,WeatherDisplay:10.37,2013-05-23 06:22:00,
2013-05-23 01:27:00,62.2,58.6,29.89,SSE,166,0.1,1.1,88,0.00,CLR,,0.00,0.0,WeatherDisplay:10.37,2013-05-23 06:27:00,
2013-05-23 01:32:00,62.0,58.7,29.89,SSE,166,0.0,0.0,89,0.00,CLR,,0.00,0.0,WeatherDisplay:10.37,2013-05-23 06:32:00,
2013-05-23 01:37:00,62.0,58.7,29.89,SSE,166,0.0,0.0,89,0.00,CLR,,0.00,0.0,WeatherDisplay:10.37,2013-05-23 06:37:00,
2013-05-23 01:42:00,62.0,58.7,29.89,SSE,166,0.1,1.0,89,0.00,CLR,,0.00,0.0,WeatherDisplay:10.37,2013-05-23 06:42:00,
2013-05-23 01:47:00,62.4,59.1,29.89,SSE,166,0.2,1.1,89,0.00,CLR,,0.00,0.0,WeatherDisplay:10.37,2013-05-23 06:47:00,
2013-05-23 01:52:00,62.6,59.0,29.89,SSE,166,0.1,1.1,88,0.00,CLR,,0.00,0.0,WeatherDisplay:10.37,2013-05-23 06:52:00,
2013-05-23 01:57:00,62.7,59.1,29.89,SSE,166,0.1,1.0,88,0.00,CLR,,0.00,0.0,WeatherDisplay:10.37,2013-05-23 06:57:00,
2013-05-23 02:02:00,62.9,59.0,29.89,SSE,166,0.7,2.3,87,0.00,CLR,,0.00,0.0,WeatherDisplay:10.37,2013-05-23 07:02:00,
2013-05-23 02:07:00,63.1,59.2,29.89,SSE,166,0.1,1.1,87,0.00,CLR,,0.00,0.0,WeatherDisplay:10.37,2013-05-23 07:07:00,
2013-05-23 02:12:00,63.2,59.3,29.89,SSE,166,0.0,0.0,87,0.00,CLR,,0.00,0.0,WeatherDisplay:10.37,2013-05-23 07:12:00,
2013-05-23 02:17:00,62.9,59.0,29.89,SSE,166,0.0,1.1,87,0.00,CLR,,0.00,0.0,WeatherDisplay:10.37,2013-05-23 07:17:00,
2013-05-23 02:22:00,62.5,58.9,29.89,SSE,166,0.0,0.0,88,0.00,CLR,,0.00,0.0,WeatherDisplay:10.37,2013-05-23 07:22:00,
2013-05-23 02:27:00,62.2,58.9,29.89,SSE,166,0.0,0.0,89,0.00,CLR,,0.00,0.0,WeatherDisplay:10.37,2013-05-23 07:27:00,
2013-05-23 02:32:00,61.9,58.9,29.89,SSE,166,0.0,0.0,90,0.00,CLR,,0.00,0.0,WeatherDisplay:10.37,2013-05-23 07:32:00,
2013-05-23 02:37:00,61.7,58.7,29.90,SSE,166,0.0,0.0,90,0.00,CLR,,0.00,0.0,WeatherDisplay:10.37,2013-05-23 07:37:00,
2013-05-23 02:42:00,61.6,58.9,29.90,SSE,166,0.0,0.0,91,0.00,CLR,,0.00,0.0,WeatherDisplay:10.37,2013-05-23 07:42:00,
2013-05-23 02:47:00,61.6,59.3,29.90,SSE,166,0.5,2.3,92,0.00,CLR,,0.00,0.0,WeatherDisplay:10.37,2013-05-23 07:47:00,
2013-05-23 02:52:00,61.4,59.1,29.89,SSE,166,0.3,2.3,92,0.00,CLR,,0.00,0.0,WeatherDisplay:10.37,2013-05-23 07:52:00,
2013-05-23 02:57:00,61.5,59.2,29.89,SSE,166,0.5,1.0,92,0.00,CLR,,0.00,0.0,WeatherDisplay:10.37,2013-05-23 07:57:00,
2013-05-23 03:02:00,61.4,59.1,29.90,SSE,166,0.4,2.3,92,0.00,CLR,,0.00,0.0,WeatherDisplay:10.37,2013-05-23 08:02:00,
2013-05-23 03:07:00,61.2,59.2,29.90,SSE,166,0.8,2.3,93,0.00,CLR,,0.00,0.0,WeatherDisplay:10.37,2013-05-23 08:07:00,
2013-05-23 03:12:00,61.3,59.3,29.90,SSE,166,0.8,1.1,93,0.00,CLR,,0.00,0.0,WeatherDisplay:10.37,2013-05-23 08:12:00,
2013-05-23 03:17:00,61.5,59.8,29.90,SSE,166,0.2,1.1,94,0.00,CLR,,0.00,0.0,WeatherDisplay:10.37,2013-05-23 08:17:00,
2013-05-23 03:22:00,61.7,60.0,29.89,SSE,166,1.7,3.5,94,0.00,CLR,,0.00,0.0,WeatherDisplay:10.37,2013-05-23 08:22:00,
2013-05-23 03:27:00,61.8,59.8,29.89,SSE,166,0.5,2.3,93,0.00,CLR,,0.00,0.0,WeatherDisplay:10.37,2013-05-23 08:27:00,
2013-05-23 03:32:00,62.5,60.4,29.89,SSE,166,1.5,4.6,93,0.00,CLR,,0.00,0.0,WeatherDisplay:10.37,2013-05-23 08:32:00,
2013-05-23 03:37:00,62.9,60.8,29.89,SSE,165,1.2,3.5,93,0.00,CLR,,0.00,0.0,WeatherDisplay:10.37,2013-05-23 08:37:00,
2013-05-23 03:42:00,62.9,60.5,29.90,SSE,165,0.5,1.1,92,0.00,CLR,,0.00,0.0,WeatherDisplay:10.37,2013-05-23 08:42:00,
2013-05-23 03:47:00,62.9,60.8,29.90,SSE,165,0.3,2.3,93,0.00,CLR,,0.00,0.0,WeatherDisplay:10.37,2013-05-23 08:47:00,
2013-05-23 03:52:00,62.9,60.8,29.90,SSE,165,0.9,2.3,93,0.00,CLR,,0.00,0.0,WeatherDisplay:10.37,2013-05-23 08:52:00,
2013-05-23 03:57:00,63.2,61.1,29.90,SSE,165,0.7,2.3,93,0.00,CLR,,0.00,0.0,WeatherDisplay:10.37,2013-05-23 08:57:00,
2013-05-23 04:02:00,63.6,61.2,29.89,SSE,165,0.9,3.5,92,0.00,CLR,,0.00,0.0,WeatherDisplay:10.37,2013-05-23 09:02:00,
2013-05-23 04:07:00,63.7,61.3,29.89,SSE,165,0.0,0.0,92,0.00,CLR,,0.00,0.0,WeatherDisplay:10.37,2013-05-23 09:07:00,
2013-05-23 04:12:00,63.8,61.4,29.89,SSE,165,0.4,1.1,92,0.00,CLR,,0.00,0.0,WeatherDisplay:10.37,2013-05-23 09:12:00,
2013-05-23 04:17:00,63.6,61.2,29.89,SSE,165,1.6,5.8,92,0.00,CLR,,0.00,0.0,WeatherDisplay:10.37,2013-05-23 09:17:00,
2013-05-23 04:22:00,63.5,61.1,29.89,SSE,164,0.1,2.3,92,0.00,CLR,,0.00,0.0,WeatherDisplay:10.37,2013-05-23 09:22:00,
2013-05-23 04:27:00,63.5,61.1,29.89,SSE,164,0.2,2.0,92,0.00,CLR,,0.00,0.0,WeatherDisplay:10.37,2013-05-23 09:27:00,
2013-05-23 04:32:00,63.5,61.4,29.89,SSE,164,0.9,2.3,93,0.00,CLR,,0.00,0.0,WeatherDisplay:10.37,2013-05-23 09:32:00,
2013-05-23 04:37:00,63.4,61.3,29.89,SSE,164,0.5,2.3,93,0.00,CLR,,0.00,0.0,WeatherDisplay:10.37,2013-05-23 09:37:00,
2013-05-23 04:42:00,63.4,61.6,29.89,SSE,164,0.0,0.0,94,0.00,CLR,,0.00,0.0,WeatherDisplay:10.37,2013-05-23 09:42:00,
2013-05-23 04:47:00,63.3,61.5,29.89,SSE,164,0.0,0.0,94,0.00,CLR,,0.00,0.0,WeatherDisplay:10.37,2013-05-23 09:47:00,
2013-05-23 04:52:00,63.6,61.8,29.89,SE,140,0.6,2.3,94,0.00,CLR,,0.00,0.0,WeatherDisplay:10.37,2013-05-23 09:52:00,
2013-05-23 04:57:00,64.0,61.9,29.89,SE,140,2.6,5.0,93,0.00,CLR,,0.00,0.0,WeatherDisplay:10.37,2013-05-23 09:57:00,
2013-05-23 05:02:00,64.3,62.2,29.89,SE,140,1.3,3.5,93,0.00,CLR,,0.00,0.0,WeatherDisplay:10.37,2013-05-23 10:02:00,
2013-05-23 05:07:00,64.5,62.4,29.89,SE,140,1.7,4.6,93,0.00,CLR,,0.00,0.0,WeatherDisplay:10.37,2013-05-23 10:07:00,
2013-05-23 05:12:00,64.5,62.1,29.89,SE,138,0.7,2.3,92,0.00,CLR,,0.00,0.0,WeatherDisplay:10.37,2013-05-23 10:12:00,
2013-05-23 05:17:00,64.6,62.5,29.89,SE,138,0.5,2.3,93,0.00,CLR,,0.00,0.0,WeatherDisplay:10.37,2013-05-23 10:17:00,
2013-05-23 05:22:00,64.7,62.3,29.90,SE,138,0.0,3.5,92,0.00,CLR,,0.00,0.0,WeatherDisplay:10.37,2013-05-23 10:22:00,
2013-05-23 05:27:00,64.5,62.4,29.90,SE,138,0.0,1.1,93,0.00,CLR,,0.00,0.0,WeatherDisplay:10.37,2013-05-23 10:27:00,
2013-05-23 05:32:00,64.5,62.4,29.91,SE,135,2.2,5.8,93,0.00,CLR,,0.00,0.0,WeatherDisplay:10.37,2013-05-23 10:32:00,
2013-05-23 05:37:00,64.8,62.7,29.91,SE,133,0.6,3.5,93,0.00,CLR,,0.00,0.0,WeatherDisplay:10.37,2013-05-23 10:37:00,
2013-05-23 05:42:00,65.1,63.0,29.91,SE,133,1.1,2.3,93,0.00,CLR,,0.00,0.0,WeatherDisplay:10.37,2013-05-23 10:42:00,
2013-05-23 05:47:00,65.2,63.1,29.91,SE,133,0.9,5.0,93,0.00,BKN,,0.00,0.0,WeatherDisplay:10.37,2013-05-23 10:47:00,
2013-05-23 05:52:00,65.2,63.1,29.92,SE,133,0.4,4.0,93,0.00,BKN,,0.00,0.0,WeatherDisplay:10.37,2013-05-23 10:52:00,
2013-05-23 05:57:00,65.0,62.9,29.92,SE,133,0.1,1.1,93,0.00,BKN,,0.00,0.0,WeatherDisplay:10.37,2013-05-23 10:57:00,
2013-05-23 06:02:00,64.7,62.6,29.92,SE,133,0.3,2.3,93,0.00,BKN,,0.00,0.0,WeatherDisplay:10.37,2013-05-23 11:02:00,
2013-05-23 06:07:00,64.6,62.8,29.92,SE,132,0.3,2.3,94,0.00,BKN,,0.00,0.0,WeatherDisplay:10.37,2013-05-23 11:07:00,
2013-05-23 06:12:00,65.3,63.5,29.93,SE,131,0.3,2.3,94,0.00,BKN,,0.00,0.0,WeatherDisplay:10.37,2013-05-23 11:12:00,
2013-05-23 06:17:00,65.5,63.4,29.93,ESE,122,0.7,3.5,93,0.00,BKN,,0.00,0.0,WeatherDisplay:10.37,2013-05-23 11:17:00,
2013-05-23 06:22:00,65.9,63.8,29.93,ESE,122,0.7,2.3,93,0.00,BKN,,0.00,0.0,WeatherDisplay:10.37,2013-05-23 11:22:00,
2013-05-23 06:27:00,66.2,64.1,29.93,ESE,122,0.0,3.5,93,0.00,BKN,,0.00,0.0,WeatherDisplay:10.37,2013-05-23 11:27:00,
2013-05-23 06:32:00,66.5,64.1,29.93,ESE,118,1.8,5.8,92,0.00,OVC,,0.00,0.0,WeatherDisplay:10.37,2013-05-23 11:32:00,
2013-05-23 06:37:00,66.3,63.9,29.93,ESE,118,1.2,4.0,92,0.00,OVC,,0.00,0.0,WeatherDisplay:10.37,2013-05-23 11:37:00,
2013-05-23 06:42:00,65.6,63.2,29.93,ESE,107,3.0,5.8,92,0.00,OVC,,0.00,0.0,WeatherDisplay:10.37,2013-05-23 11:42:00,
2013-05-23 06:47:00,64.9,62.5,29.93,East,83,2.5,4.6,92,0.00,OVC,,0.00,0.0,WeatherDisplay:10.37,2013-05-23 11:47:00,
2013-05-23 06:52:00,64.6,62.5,29.93,East,82,2.6,4.6,93,0.00,OVC,,0.00,0.0,WeatherDisplay:10.37,2013-05-23 11:52:00,
2013-05-23 06:57:00,64.4,62.3,29.93,ENE,76,3.6,5.8,93,0.00,OVC,,0.00,0.0,WeatherDisplay:10.37,2013-05-23 11:57:00,
2013-05-23 07:02:00,64.4,62.6,29.93,ENE,72,3.5,4.6,94,0.00,OVC,,0.00,0.0,WeatherDisplay:10.37,2013-05-23 12:02:00,
2013-05-23 07:07:00,64.5,62.7,29.93,ENE,60,3.9,6.9,94,0.00,OVC,,0.00,9.9,WeatherDisplay:10.37,2013-05-23 12:07:00,
2013-05-23 07:12:00,64.5,62.7,29.93,ENE,72,4.5,8.1,94,0.00,OVC,,0.00,12.1,WeatherDisplay:10.37,2013-05-23 12:12:00,
2013-05-23 07:17:00,64.7,62.9,29.94,NE,46,4.5,8.1,94,0.00,OVC,,0.00,7.7,WeatherDisplay:10.37,2013-05-23 12:17:00,
2013-05-23 07:22:00,64.9,63.1,29.94,ENE,58,6.2,8.1,94,0.00,OVC,,0.00,7.7,WeatherDisplay:10.37,2013-05-23 12:22:00,
2013-05-23 07:27:00,65.1,63.0,29.95,NE,45,4.1,12.7,93,0.00,OVC,,0.00,7.7,WeatherDisplay:10.37,2013-05-23 12:27:00,
2013-05-23 07:32:00,65.4,63.3,29.95,ENE,59,5.4,12.7,93,0.00,OVC,,0.00,7.7,WeatherDisplay:10.37,2013-05-23 12:32:00,
2013-05-23 07:37:00,65.7,63.6,29.96,ENE,63,6.3,10.0,93,0.00,OVC,,0.00,5.5,WeatherDisplay:10.37,2013-05-23 12:37:00,
2013-05-23 07:42:00,66.0,63.6,29.96,ENE,62,3.2,5.8,92,0.00,OVC,,0.00,15.4,WeatherDisplay:10.37,2013-05-23 12:42:00,
2013-05-23 07:47:00,66.3,63.9,29.96,ENE,60,3.0,3.5,92,0.00,OVC,,0.00,30.8,WeatherDisplay:10.37,2013-05-23 12:47:00,
2013-05-23 07:52:00,66.5,64.1,29.96,ENE,76,3.0,6.0,92,0.00,OVC,,0.00,48.4,WeatherDisplay:10.37,2013-05-23 12:52:00,
2013-05-23 07:57:00,66.9,64.2,29.96,East,85,2.4,6.9,91,0.00,OVC,,0.00,63.8,WeatherDisplay:10.37,2013-05-23 12:57:00,
2013-05-23 08:02:00,67.1,64.4,29.96,SE,127,2.7,14.0,91,0.00,OVC,,0.00,59.4,WeatherDisplay:10.37,2013-05-23 13:02:00,
2013-05-23 08:07:00,67.3,64.6,29.96,ENE,70,3.7,5.8,91,0.00,OVC,,0.00,61.6,WeatherDisplay:10.37,2013-05-23 13:07:00,
2013-05-23 08:12:00,67.4,64.7,29.96,East,86,2.4,6.9,91,0.00,OVC,,0.00,42.9,WeatherDisplay:10.37,2013-05-23 13:12:00,
2013-05-23 08:17:00,67.4,64.7,29.96,East,91,3.9,8.1,91,0.00,OVC,,0.00,36.3,WeatherDisplay:10.37,2013-05-23 13:17:00,
2013-05-23 08:22:00,67.6,64.9,29.96,ESE,120,1.6,6.9,91,0.00,OVC,,0.00,30.8,WeatherDisplay:10.37,2013-05-23 13:22:00,
2013-05-23 08:27:00,67.7,65.0,29.96,ESE,120,1.1,4.6,91,0.00,OVC,,0.00,25.3,WeatherDisplay:10.37,2013-05-23 13:27:00,
2013-05-23 08:32:00,67.8,65.1,29.96,ESE,120,0.0,0.0,91,0.00,OVC,,0.00,28.6,WeatherDisplay:10.37,2013-05-23 13:32:00,
2013-05-23 08:37:00,67.8,65.1,29.97,ESE,120,0.0,2.3,91,0.00,OVC,,0.00,23.1,WeatherDisplay:10.37,2013-05-23 13:37:00,
2013-05-23 08:42:00,67.9,65.2,29.98,ESE,120,0.0,0.0,91,0.00,OVC,,0.00,19.8,WeatherDisplay:10.37,2013-05-23 13:42:00,
2013-05-23 08:47:00,67.9,65.5,29.99,ESE,120,3.1,5.0,92,0.00,OVC,,0.00,12.1,WeatherDisplay:10.37,2013-05-23 13:47:00,
2013-05-23 08:52:00,67.9,65.8,30.04,WNW,282,9.1,13.0,93,0.00,OVC,,0.00,0.0,WeatherDisplay:10.37,2013-05-23 13:52:00,
2013-05-23 08:57:00,66.8,61.1,30.06,North,356,17.3,23.0,82,0.00,OVC,,0.00,0.0,WeatherDisplay:10.37,2013-05-23 13:57:00,
2013-05-23 09:02:00,63.5,58.6,30.05,NE,35,16.0,28.8,84,0.00,OVC,,0.00,0.0,WeatherDisplay:10.37,2013-05-23 14:02:00,
2013-05-23 09:07:00,60.6,58.0,30.04,NE,55,14.8,31.1,91,0.09,RA,,0.09,0.0,WeatherDisplay:10.37,2013-05-23 14:07:00,
2013-05-23 09:12:00,59.8,58.1,30.06,NW,322,7.8,13.8,94,0.21,RA,,0.22,0.0,WeatherDisplay:10.37,2013-05-23 14:12:00,
2013-05-23 09:17:00,60.0,58.6,30.05,NNE,20,13.0,25.3,95,0.33,RA,,0.33,0.0,WeatherDisplay:10.37,2013-05-23 14:17:00,
2013-05-23 09:22:00,60.1,58.7,30.04,NNE,20,17.6,31.1,95,0.43,RA,,0.44,0.0,WeatherDisplay:10.37,2013-05-23 14:22:00,
2013-05-23 09:27:00,60.0,58.6,30.04,NE,50,12.6,19.6,95,0.49,RA,,0.50,5.5,WeatherDisplay:10.37,2013-05-23 14:27:00,
2013-05-23 09:32:00,60.5,59.4,30.03,ENE,58,13.4,26.5,96,0.54,RA,,0.54,7.7,WeatherDisplay:10.37,2013-05-23 14:32:00,
2013-05-23 09:37:00,61.2,59.8,30.03,NE,54,14.7,20.0,95,0.55,RA,,0.55,9.9,WeatherDisplay:10.37,2013-05-23 14:37:00,
2013-05-23 09:42:00,61.6,60.2,30.03,NNE,31,10.5,23.0,95,0.55,OVC,,0.55,13.2,WeatherDisplay:10.37,2013-05-23 14:42:00,
2013-05-23 09:47:00,61.6,60.2,30.03,NE,45,6.2,18.0,95,0.55,OVC,,0.55,19.8,WeatherDisplay:10.37,2013-05-23 14:47:00,
2013-05-23 09:52:00,61.5,60.1,30.02,East,81,6.7,12.7,95,0.55,OVC,,0.55,20.9,WeatherDisplay:10.37,2013-05-23 14:52:00,
2013-05-23 09:57:00,61.8,60.4,30.01,NE,47,11.1,20.7,95,0.55,OVC,,0.55,25.3,WeatherDisplay:10.37,2013-05-23 14:57:00,
2013-05-23 10:02:00,62.2,60.8,30.01,ENE,66,4.3,10.4,95,0.55,BKN,,0.55,35.2,WeatherDisplay:10.37,2013-05-23 15:02:00,
2013-05-23 10:07:00,62.4,60.7,30.01,NE,47,4.5,12.0,94,0.46,BKN,,0.55,50.6,WeatherDisplay:10.37,2013-05-23 15:07:00,
2013-05-23 10:12:00,62.4,60.3,30.02,NNE,29,4.9,11.0,93,0.34,BKN,,0.55,61.6,WeatherDisplay:10.37,2013-05-23 15:12:00,
2013-05-23 10:17:00,62.4,60.3,30.02,NE,41,4.6,8.1,93,0.22,BKN,,0.55,79.2,WeatherDisplay:10.37,2013-05-23 15:17:00,
2013-05-23 10:22:00,62.5,60.4,30.02,ENE,72,7.2,13.0,93,0.12,BKN,,0.55,104.5,WeatherDisplay:10.37,2013-05-23 15:22:00,
2013-05-23 10:27:00,63.1,60.7,30.02,ENE,61,3.6,6.0,92,0.06,BKN,,0.55,117.7,WeatherDisplay:10.37,2013-05-23 15:27:00,
2013-05-23 10:32:00,63.4,60.4,30.02,ENE,67,2.7,10.4,90,0.01,BKN,,0.55,124.3,WeatherDisplay:10.37,2013-05-23 15:32:00,
2013-05-23 10:37:00,63.9,61.2,30.03,ENE,72,0.5,3.5,91,0.00,BKN,,0.55,139.7,WeatherDisplay:10.37,2013-05-23 15:37:00,
2013-05-23 10:42:00,64.2,61.2,30.03,ENE,69,1.2,2.3,90,0.00,BKN,,0.55,152.9,WeatherDisplay:10.37,2013-05-23 15:42:00,
2013-05-23 10:47:00,64.8,61.8,30.03,ENE,73,1.5,3.5,90,0.00,SCT,,0.55,201.3,WeatherDisplay:10.37,2013-05-23 15:47:00,
2013-05-23 10:52:00,65.2,62.2,30.03,SE,143,2.2,6.9,90,0.00,SCT,,0.55,363.0,WeatherDisplay:10.37,2013-05-23 15:52:00,
2013-05-23 10:57:00,66.9,63.6,30.03,ESE,117,1.5,6.0,89,0.00,SCT,,0.55,773.3,WeatherDisplay:10.37,2013-05-23 15:57:00,
2013-05-23 11:02:00,69.1,64.7,30.03,East,85,1.3,3.5,86,0.00,SCT,,0.55,883.3,WeatherDisplay:10.37,2013-05-23 16:02:00,
2013-05-23 11:07:00,70.5,65.1,30.03,East,86,4.5,8.1,83,0.00,SCT,,0.55,875.6,WeatherDisplay:10.37,2013-05-23 16:07:00,
2013-05-23 11:12:00,71.5,66.1,30.03,ENE,78,6.3,12.7,83,0.00,SCT,,0.55,850.3,WeatherDisplay:10.37,2013-05-23 16:12:00,
2013-05-23 11:17:00,71.9,66.8,30.02,ESE,110,5.3,12.7,84,0.00,SCT,,0.55,866.8,WeatherDisplay:10.37,2013-05-23 16:17:00,
2013-05-23 11:22:00,72.5,68.1,30.02,ESE,106,4.5,12.0,86,0.00,SCT,,0.55,898.7,WeatherDisplay:10.37,2013-05-23 16:22:00,
2013-05-23 11:27:00,73.2,68.4,30.02,NE,52,4.0,8.1,85,0.00,SCT,,0.55,893.2,WeatherDisplay:10.37,2013-05-23 16:27:00,
2013-05-23 11:32:00,73.9,69.1,30.02,ENE,58,2.5,6.9,85,0.00,SCT,,0.55,1020.8,WeatherDisplay:10.37,2013-05-23 16:32:00,
2013-05-23 11:37:00,75.1,68.9,30.02,ENE,72,4.1,8.1,81,0.00,SCT,,0.55,860.2,WeatherDisplay:10.37,2013-05-23 16:37:00,
2013-05-23 11:42:00,74.7,68.5,30.02,ENE,64,3.5,5.8,81,0.00,SCT,,0.55,810.7,WeatherDisplay:10.37,2013-05-23 16:42:00,
2013-05-23 11:47:00,75.0,68.4,30.02,East,99,3.1,11.5,80,0.00,CLR,,0.55,982.3,WeatherDisplay:10.37,2013-05-23 16:47:00,
2013-05-23 11:52:00,75.4,69.2,30.02,ENE,73,8.9,12.7,81,0.00,CLR,,0.55,992.2,WeatherDisplay:10.37,2013-05-23 16:52:00,
2013-05-23 11:57:00,75.7,69.8,30.02,East,100,1.9,6.9,82,0.00,CLR,,0.55,1007.6,WeatherDisplay:10.37,2013-05-23 16:57:00,
2013-05-23 12:02:00,76.3,68.9,30.02,East,100,5.0,10.4,78,0.00,SCT,,0.55,982.3,WeatherDisplay:10.37,2013-05-23 17:02:00,
2013-05-23 12:07:00,76.7,70.1,30.02,ENE,76,5.0,11.5,80,0.00,SCT,,0.55,957.0,WeatherDisplay:10.37,2013-05-23 17:07:00,
2013-05-23 12:12:00,76.4,68.3,30.02,ENE,75,4.8,11.5,76,0.00,SCT,,0.55,748.0,WeatherDisplay:10.37,2013-05-23 17:12:00,
2013-05-23 12:17:00,77.2,69.0,30.02,East,97,6.9,16.1,76,0.00,SCT,,0.55,997.7,WeatherDisplay:10.37,2013-05-23 17:17:00,
2013-05-23 12:22:00,77.9,68.5,30.02,East,83,3.2,12.7,73,0.00,SCT,,0.55,1002.1,WeatherDisplay:10.37,2013-05-23 17:22:00,
2013-05-23 12:27:00,78.7,69.7,30.02,ESE,112,6.9,11.5,74,0.00,SCT,,0.55,1002.1,WeatherDisplay:10.37,2013-05-23 17:27:00,
2013-05-23 12:32:00,79.6,71.0,30.02,ESE,123,1.0,8.1,75,0.00,CLR,,0.55,995.5,WeatherDisplay:10.37,2013-05-23 17:32:00,
2013-05-23 12:37:00,80.4,69.3,30.01,ESE,121,3.2,8.1,69,0.00,CLR,,0.55,1013.1,WeatherDisplay:10.37,2013-05-23 17:37:00,
2013-05-23 12:42:00,80.8,70.1,30.01,SE,127,5.7,9.2,70,0.00,CLR,,0.55,1015.3,WeatherDisplay:10.37,2013-05-23 17:42:00,
2013-05-23 12:47:00,81.1,69.1,30.01,ESE,108,2.1,8.0,67,0.00,CLR,,0.55,1017.5,WeatherDisplay:10.37,2013-05-23 17:47:00,
2013-05-23 12:52:00,81.1,69.1,30.00,ENE,73,3.9,17.0,67,0.00,CLR,,0.55,1020.8,WeatherDisplay:10.37,2013-05-23 17:52:00,
2013-05-23 12:57:00,81.3,68.9,30.00,ESE,112,5.4,11.5,66,0.00,CLR,,0.55,1025.2,WeatherDisplay:10.37,2013-05-23 17:57:00,
2013-05-23 13:02:00,81.5,69.0,30.00,SSE,149,4.2,10.0,66,0.00,CLR,,0.55,1030.7,WeatherDisplay:10.37,2013-05-23 18:02:00,
2013-05-23 13:07:00,81.7,68.3,30.00,ESE,122,7.7,11.5,64,0.00,CLR,,0.55,1030.7,WeatherDisplay:10.37,2013-05-23 18:07:00,
2013-05-23 13:12:00,81.4,67.6,30.00,East,84,4.0,10.4,63,0.00,CLR,,0.55,1038.4,WeatherDisplay:10.37,2013-05-23 18:12:00,
2013-05-23 13:17:00,81.4,68.9,29.99,East,91,1.8,6.9,66,0.00,CLR,,0.55,1036.2,WeatherDisplay:10.37,2013-05-23 18:17:00,
2013-05-23 13:22:00,82.0,67.7,30.00,East,84,5.1,13.8,62,0.00,CLR,,0.55,1038.4,WeatherDisplay:10.37,2013-05-23 18:22:00,
2013-05-23 13:27:00,82.3,67.5,30.00,SE,136,4.8,12.7,61,0.00,CLR,,0.55,1038.4,WeatherDisplay:10.37,2013-05-23 18:27:00,
2013-05-23 13:32:00,82.9,68.5,30.00,East,89,1.7,5.0,62,0.00,CLR,,0.55,1032.9,WeatherDisplay:10.37,2013-05-23 18:32:00,
2013-05-23 13:37:00,82.7,65.9,30.00,SSE,150,7.5,12.7,57,0.00,CLR,,0.55,1038.4,WeatherDisplay:10.37,2013-05-23 18:37:00,
2013-05-23 13:42:00,82.8,67.0,30.00,ESE,122,5.9,11.5,59,0.00,CLR,,0.55,1036.2,WeatherDisplay:10.37,2013-05-23 18:42:00,
2013-05-23 13:47:00,82.4,67.1,29.99,SE,130,5.3,9.2,60,0.00,CLR,,0.55,1028.5,WeatherDisplay:10.37,2013-05-23 18:47:00,
2013-05-23 13:52:00,82.4,68.5,29.99,ESE,103,2.5,8.0,63,0.00,CLR,,0.55,1028.5,WeatherDisplay:10.37,2013-05-23 18:52:00,
2013-05-23 13:57:00,82.9,68.1,29.99,East,79,2.2,5.8,61,0.00,CLR,,0.55,1026.3,WeatherDisplay:10.37,2013-05-23 18:57:00,
2013-05-23 14:02:00,83.6,69.2,29.99,East,85,1.4,6.9,62,0.00,CLR,,0.55,1025.2,WeatherDisplay:10.37,2013-05-23 19:02:00,
2013-05-23 14:07:00,83.5,65.6,29.99,East,92,2.7,6.9,55,0.00,CLR,,0.55,1025.2,WeatherDisplay:10.37,2013-05-23 19:07:00,
2013-05-23 14:12:00,83.7,67.8,29.99,East,85,1.6,5.8,59,0.00,CLR,,0.55,1026.3,WeatherDisplay:10.37,2013-05-23 19:12:00,
2013-05-23 14:17:00,83.8,67.9,29.99,ESE,102,5.4,11.5,59,0.00,CLR,,0.55,1023.0,WeatherDisplay:10.37,2013-05-23 19:17:00,
2013-05-23 14:22:00,83.9,70.0,29.99,SE,125,4.4,11.5,63,0.00,CLR,,0.55,1018.6,WeatherDisplay:10.37,2013-05-23 19:22:00,
2013-05-23 14:27:00,83.5,68.2,29.99,SE,127,4.3,11.5,60,0.00,CLR,,0.55,1003.2,WeatherDisplay:10.37,2013-05-23 19:27:00,
2013-05-23 14:32:00,83.5,69.1,29.99,ESE,107,5.6,11.5,62,0.00,CLR,,0.55,1005.4,WeatherDisplay:10.37,2013-05-23 19:32:00,
2013-05-23 14:37:00,84.0,67.1,29.99,ESE,121,7.5,11.5,57,0.00,CLR,,0.55,997.7,WeatherDisplay:10.37,2013-05-23 19:37:00,
2013-05-23 14:42:00,84.2,67.8,29.99,ESE,122,3.2,6.9,58,0.00,CLR,,0.55,985.6,WeatherDisplay:10.37,2013-05-23 19:42:00,
2013-05-23 14:47:00,83.9,67.0,29.98,SE,124,4.9,12.7,57,0.00,CLR,,0.55,984.5,WeatherDisplay:10.37,2013-05-23 19:47:00,
2013-05-23 14:52:00,84.0,67.1,29.98,ESE,112,3.6,9.2,57,0.00,CLR,,0.55,972.4,WeatherDisplay:10.37,2013-05-23 19:52:00,
2013-05-23 14:57:00,84.4,68.5,29.98,ESE,114,3.6,8.1,59,0.00,CLR,,0.55,966.9,WeatherDisplay:10.37,2013-05-23 19:57:00,
2013-05-23 15:02:00,84.8,66.8,29.98,SSE,152,7.1,11.5,55,0.00,CLR,,0.55,959.2,WeatherDisplay:10.37,2013-05-23 20:02:00,
2013-05-23 15:07:00,84.0,66.6,29.98,SSE,156,5.7,15.0,56,0.00,CLR,,0.55,949.3,WeatherDisplay:10.37,2013-05-23 20:07:00,
2013-05-23 15:12:00,83.9,67.5,29.97,ESE,118,3.0,11.5,58,0.00,CLR,,0.55,936.1,WeatherDisplay:10.37,2013-05-23 20:12:00,
2013-05-23 15:17:00,84.3,66.4,29.98,SSE,151,5.3,10.4,55,0.00,CLR,,0.55,936.1,WeatherDisplay:10.37,2013-05-23 20:17:00,
2013-05-23 15:22:00,84.0,65.6,29.97,SSE,151,3.3,6.9,54,0.00,CLR,,0.55,921.8,WeatherDisplay:10.37,2013-05-23 20:22:00,
2013-05-23 15:27:00,85.1,68.2,29.97,SE,133,1.8,4.0,57,0.00,CLR,,0.55,908.6,WeatherDisplay:10.37,2013-05-23 20:27:00,
2013-05-23 15:32:00,84.1,66.7,29.97,SE,141,5.0,10.4,56,0.00,CLR,,0.55,897.6,WeatherDisplay:10.37,2013-05-23 20:32:00,
2013-05-23 15:37:00,83.9,67.0,29.97,SSE,151,4.3,8.1,57,0.00,CLR,,0.55,889.9,WeatherDisplay:10.37,2013-05-23 20:37:00,
2013-05-23 15:42:00,83.6,66.8,29.97,SE,143,6.6,11.5,57,0.00,CLR,,0.55,875.6,WeatherDisplay:10.37,2013-05-23 20:42:00,
2013-05-23 15:47:00,84.0,66.1,29.96,SSE,151,6.6,13.8,55,0.00,SCT,,0.55,858.0,WeatherDisplay:10.37,2013-05-23 20:47:00,
2013-05-23 15:52:00,84.6,66.1,29.97,SE,142,2.9,8.1,54,0.00,SCT,,0.55,849.2,WeatherDisplay:10.37,2013-05-23 20:52:00,
2013-05-23 15:57:00,84.6,67.2,29.96,SE,132,2.1,5.8,56,0.00,SCT,,0.55,833.8,WeatherDisplay:10.37,2013-05-23 20:57:00,
2013-05-23 16:02:00,84.5,64.9,29.96,SE,137,7.0,11.5,52,0.00,CLR,,0.55,827.2,WeatherDisplay:10.37,2013-05-23 21:02:00,
2013-05-23 16:07:00,84.3,67.4,29.96,SSE,156,3.2,6.0,57,0.00,CLR,,0.55,814.0,WeatherDisplay:10.37,2013-05-23 21:07:00,
2013-05-23 16:12:00,85.0,67.5,29.96,SE,143,5.2,9.2,56,0.00,CLR,,0.55,798.6,WeatherDisplay:10.37,2013-05-23 21:12:00,
2013-05-23 16:17:00,85.4,67.4,29.95,SSE,156,6.3,12.7,55,0.00,CLR,,0.55,785.4,WeatherDisplay:10.37,2013-05-23 21:17:00,
2013-05-23 16:22:00,85.9,68.4,29.95,SE,132,3.3,9.2,56,0.00,CLR,,0.55,762.3,WeatherDisplay:10.37,2013-05-23 21:22:00,
2013-05-23 16:27:00,84.5,65.5,29.95,SSE,152,5.5,10.4,53,0.00,CLR,,0.55,752.4,WeatherDisplay:10.37,2013-05-23 21:27:00,
2013-05-23 16:32:00,84.3,66.4,29.96,SSE,148,5.6,11.5,55,0.00,CLR,,0.55,740.3,WeatherDisplay:10.37,2013-05-23 21:32:00,
2013-05-23 16:37:00,84.2,65.8,29.96,SSE,151,4.8,9.2,54,0.00,CLR,,0.55,724.9,WeatherDisplay:10.37,2013-05-23 21:37:00,
2013-05-23 16:42:00,84.6,66.1,29.95,SE,146,5.2,11.5,54,0.00,CLR,,0.55,709.5,WeatherDisplay:10.37,2013-05-23 21:42:00,
2013-05-23 16:47:00,84.7,66.2,29.95,SSE,149,6.6,10.4,54,0.00,CLR,,0.55,688.6,WeatherDisplay:10.37,2013-05-23 21:47:00,
2013-05-23 16:52:00,84.0,66.1,29.95,SSE,151,5.4,11.5,55,0.00,CLR,,0.55,563.2,WeatherDisplay:10.37,2013-05-23 21:52:00,
2013-05-23 16:57:00,83.3,66.0,29.95,SSE,166,6.1,8.1,56,0.00,CLR,,0.55,372.9,WeatherDisplay:10.37,2013-05-23 21:57:00,
2013-05-23 17:02:00,83.0,65.2,29.95,SE,143,4.8,8.1,55,0.00,CLR,,0.55,481.8,WeatherDisplay:10.37,2013-05-23 22:02:00,
2013-05-23 17:07:00,83.6,68.2,29.96,SE,145,0.6,6.9,60,0.00,CLR,,0.55,467.5,WeatherDisplay:10.37,2013-05-23 22:07:00,
2013-05-23 17:12:00,84.1,66.7,29.96,SE,133,3.2,7.0,56,0.00,CLR,,0.55,408.1,WeatherDisplay:10.37,2013-05-23 22:12:00,
2013-05-23 17:17:00,83.7,66.3,29.96,SE,129,1.2,5.8,56,0.00,CLR,,0.55,338.8,WeatherDisplay:10.37,2013-05-23 22:17:00,
2013-05-23 17:22:00,83.1,67.3,29.96,SE,128,5.6,6.9,59,0.00,CLR,,0.55,305.8,WeatherDisplay:10.37,2013-05-23 22:22:00,
2013-05-23 17:27:00,82.6,67.3,29.96,SE,126,2.4,6.9,60,0.00,CLR,,0.55,283.8,WeatherDisplay:10.37,2013-05-23 22:27:00,
2013-05-23 17:32:00,82.4,67.1,29.96,ESE,123,4.5,11.5,60,0.00,CLR,,0.55,272.8,WeatherDisplay:10.37,2013-05-23 22:32:00,
2013-05-23 17:37:00,82.1,67.3,29.96,SE,124,0.5,3.5,61,0.00,CLR,,0.55,265.1,WeatherDisplay:10.37,2013-05-23 22:37:00,
2013-05-23 17:42:00,82.1,67.3,29.96,SE,124,1.0,7.0,61,0.00,CLR,,0.55,253.0,WeatherDisplay:10.37,2013-05-23 22:42:00,
2013-05-23 17:47:00,81.8,67.5,29.97,SE,124,0.1,3.5,62,0.00,CLR,,0.55,234.3,WeatherDisplay:10.37,2013-05-23 22:47:00,
2013-05-23 17:52:00,81.4,68.5,29.97,ESE,121,0.5,2.0,65,0.00,CLR,,0.55,216.7,WeatherDisplay:10.37,2013-05-23 22:52:00,
2013-05-23 17:57:00,81.1,68.2,29.97,ESE,120,0.2,5.8,65,0.00,CLR,,0.55,204.6,WeatherDisplay:10.37,2013-05-23 22:57:00,
2013-05-23 18:02:00,81.1,68.7,29.97,ESE,119,0.3,2.3,66,0.00,CLR,,0.55,196.9,WeatherDisplay:10.37,2013-05-23 23:02:00,
2013-05-23 18:07:00,81.2,68.3,29.98,ESE,118,2.4,3.5,65,0.00,CLR,,0.55,185.9,WeatherDisplay:10.37,2013-05-23 23:07:00,
2013-05-23 18:12:00,80.9,69.3,29.97,ESE,116,2.2,5.8,68,0.00,CLR,,0.55,178.2,WeatherDisplay:10.37,2013-05-23 23:12:00,
2013-05-23 18:17:00,80.5,69.4,29.97,ESE,110,1.9,4.0,69,0.00,CLR,,0.55,170.5,WeatherDisplay:10.37,2013-05-23 23:17:00,
2013-05-23 18:22:00,80.5,69.0,29.96,ESE,102,4.3,6.0,68,0.00,CLR,,0.55,160.6,WeatherDisplay:10.37,2013-05-23 23:22:00,
2013-05-23 18:27:00,80.1,68.6,29.97,East,99,0.9,3.5,68,0.00,CLR,,0.55,150.7,WeatherDisplay:10.37,2013-05-23 23:27:00,
2013-05-23 18:32:00,79.8,67.9,29.97,East,98,0.6,5.8,67,0.00,CLR,,0.55,139.7,WeatherDisplay:10.37,2013-05-23 23:32:00,
2013-05-23 18:37:00,79.6,68.5,29.97,East,97,2.1,5.8,69,0.00,CLR,,0.55,129.8,WeatherDisplay:10.37,2013-05-23 23:37:00,
2013-05-23 18:42:00,79.2,68.1,29.98,East,96,1.9,3.5,69,0.00,CLR,,0.55,122.1,WeatherDisplay:10.37,2013-05-23 23:42:00,
2013-05-23 18:47:00,79.1,68.5,29.98,East,83,4.0,8.1,70,0.00,CLR,,0.55,114.4,WeatherDisplay:10.37,2013-05-23 23:47:00,
2013-05-23 18:52:00,78.9,69.1,29.99,East,85,4.3,8.1,72,0.00,CLR,,0.55,106.7,WeatherDisplay:10.37,2013-05-23 23:52:00,
2013-05-23 18:57:00,78.4,69.4,29.99,East,91,3.5,9.0,74,0.00,CLR,,0.55,99.0,WeatherDisplay:10.37,2013-05-23 23:57:00,
2013-05-23 19:02:00,78.0,69.0,29.99,ENE,62,5.3,11.0,74,0.00,CLR,,0.55,89.1,WeatherDisplay:10.37,2013-05-24 00:02:00,
2013-05-23 19:07:00,77.6,69.0,29.99,ENE,73,5.7,10.4,75,0.00,CLR,,0.55,81.4,WeatherDisplay:10.37,2013-05-24 00:07:00,
2013-05-23 19:12:00,77.0,68.9,29.99,ENE,72,1.7,7.0,76,0.00,CLR,,0.55,73.7,WeatherDisplay:10.37,2013-05-24 00:12:00,
2013-05-23 19:17:00,76.4,68.7,29.99,ENE,57,2.7,4.6,77,0.00,CLR,,0.55,63.8,WeatherDisplay:10.37,2013-05-24 00:17:00,
2013-05-23 19:22:00,76.1,68.4,29.99,ENE,58,1.8,4.6,77,0.00,CLR,,0.55,58.3,WeatherDisplay:10.37,2013-05-24 00:22:00,
2013-05-23 19:27:00,75.8,68.8,29.99,East,93,1.0,5.8,79,0.00,CLR,,0.55,51.7,WeatherDisplay:10.37,2013-05-24 00:27:00,
2013-05-23 19:32:00,75.5,68.5,29.99,ENE,58,2.4,5.8,79,0.00,SCT,,0.55,48.4,WeatherDisplay:10.37,2013-05-24 00:32:00,
2013-05-23 19:37:00,75.2,68.2,29.99,NE,46,0.6,9.2,79,0.00,SCT,,0.55,42.9,WeatherDisplay:10.37,2013-05-24 00:37:00,
2013-05-23 19:42:00,75.0,68.0,29.99,NE,51,1.6,6.9,79,0.00,SCT,,0.55,36.3,WeatherDisplay:10.37,2013-05-24 00:42:00,
2013-05-23 19:47:00,74.7,68.1,30.00,ENE,67,0.3,3.5,80,0.00,BKN,,0.55,28.6,WeatherDisplay:10.37,2013-05-24 00:47:00,
2013-05-23 19:52:00,74.3,67.4,30.00,ENE,66,0.4,1.1,79,0.00,BKN,,0.55,20.9,WeatherDisplay:10.37,2013-05-24 00:52:00,
2013-05-23 19:57:00,74.1,66.8,30.01,ENE,66,2.5,6.0,78,0.00,BKN,,0.55,15.4,WeatherDisplay:10.37,2013-05-24 00:57:00,
2013-05-23 20:02:00,73.8,66.9,30.01,ENE,70,2.0,5.8,79,0.00,BKN,,0.55,9.9,WeatherDisplay:10.37,2013-05-24 01:02:00,
2013-05-23 20:07:00,73.6,66.7,30.01,ENE,70,0.9,3.5,79,0.00,BKN,,0.55,5.5,WeatherDisplay:10.37,2013-05-24 01:07:00,
2013-05-23 20:12:00,73.2,66.3,30.01,ENE,70,0.6,3.0,79,0.00,BKN,,0.55,0.0,WeatherDisplay:10.37,2013-05-24 01:12:00,
2013-05-23 20:17:00,72.9,66.4,30.01,ENE,70,0.0,1.1,80,0.00,BKN,,0.55,0.0,WeatherDisplay:10.37,2013-05-24 01:17:00,
2013-05-23 20:22:00,72.7,66.5,30.01,ENE,70,0.0,1.1,81,0.00,BKN,,0.55,0.0,WeatherDisplay:10.37,2013-05-24 01:22:00,
2013-05-23 20:27:00,72.5,66.3,30.01,ENE,70,0.0,0.0,81,0.00,BKN,,0.55,0.0,WeatherDisplay:10.37,2013-05-24 01:27:00,
2013-05-23 20:32:00,72.5,66.3,30.01,ENE,70,0.0,0.0,81,0.00,BKN,,0.55,0.0,WeatherDisplay:10.37,2013-05-24 01:32:00,
2013-05-23 20:37:00,72.4,66.6,30.00,ENE,70,0.0,0.0,82,0.00,BKN,,0.55,0.0,WeatherDisplay:10.37,2013-05-24 01:37:00,
2013-05-23 20:42:00,72.4,66.6,30.00,ENE,70,0.0,1.1,82,0.00,BKN,,0.55,0.0,WeatherDisplay:10.37,2013-05-24 01:42:00,
2013-05-23 20:47:00,72.5,66.3,29.99,ENE,70,0.5,2.3,81,0.00,CLR,,0.55,0.0,WeatherDisplay:10.37,2013-05-24 01:47:00,
2013-05-23 20:52:00,72.2,66.4,29.98,ENE,70,1.4,3.5,82,0.00,CLR,,0.55,0.0,WeatherDisplay:10.37,2013-05-24 01:52:00,
2013-05-23 20:57:00,71.8,66.4,29.98,ENE,70,0.3,3.5,83,0.00,CLR,,0.55,0.0,WeatherDisplay:10.37,2013-05-24 01:57:00,
2013-05-23 21:02:00,71.8,66.4,29.98,ESE,102,0.4,5.0,83,0.00,CLR,,0.55,0.0,WeatherDisplay:10.37,2013-05-24 02:02:00,
2013-05-23 21:07:00,71.9,66.5,29.97,East,95,1.3,8.1,83,0.00,CLR,,0.55,0.0,WeatherDisplay:10.37,2013-05-24 02:07:00,
2013-05-23 21:12:00,71.9,66.5,29.98,East,92,3.8,5.8,83,0.00,CLR,,0.55,0.0,WeatherDisplay:10.37,2013-05-24 02:12:00,
2013-05-23 21:17:00,71.7,66.3,29.98,East,84,1.6,5.8,83,0.00,CLR,,0.55,0.0,WeatherDisplay:10.37,2013-05-24 02:17:00,
2013-05-23 21:22:00,71.9,66.5,29.98,ENE,71,2.5,11.5,83,0.00,CLR,,0.55,0.0,WeatherDisplay:10.37,2013-05-24 02:22:00,
2013-05-23 21:27:00,71.9,66.5,29.99,East,87,3.0,10.4,83,0.00,CLR,,0.55,0.0,WeatherDisplay:10.37,2013-05-24 02:27:00,
2013-05-23 21:32:00,72.0,66.2,29.99,ENE,75,1.7,6.9,82,0.00,CLR,,0.55,0.0,WeatherDisplay:10.37,2013-05-24 02:32:00,
2013-05-23 21:37:00,72.1,66.3,30.00,ENE,71,1.1,2.3,82,0.00,CLR,,0.55,0.0,WeatherDisplay:10.37,2013-05-24 02:37:00,
2013-05-23 21:42:00,72.1,66.3,30.00,ENE,72,0.0,1.1,82,0.00,CLR,,0.55,0.0,WeatherDisplay:10.37,2013-05-24 02:42:00,
2013-05-23 21:47:00,72.0,66.6,30.01,ENE,72,0.6,2.0,83,0.00,CLR,,0.55,0.0,WeatherDisplay:10.37,2013-05-24 02:47:00,
2013-05-23 21:52:00,72.0,66.6,30.01,ENE,72,0.6,3.5,83,0.00,CLR,,0.55,0.0,WeatherDisplay:10.37,2013-05-24 02:52:00,
2013-05-23 21:57:00,71.8,66.4,30.01,ENE,72,0.5,4.6,83,0.00,CLR,,0.55,0.0,WeatherDisplay:10.37,2013-05-24 02:57:00,
2013-05-23 22:02:00,71.7,66.3,30.02,ENE,72,0.7,2.3,83,0.00,CLR,,0.55,0.0,WeatherDisplay:10.37,2013-05-24 03:02:00,
2013-05-23 22:07:00,71.6,66.5,30.02,ENE,72,0.3,2.3,84,0.00,CLR,,0.55,0.0,WeatherDisplay:10.37,2013-05-24 03:07:00,
2013-05-23 22:12:00,71.7,66.6,30.02,ENE,72,0.0,0.0,84,0.00,CLR,,0.55,0.0,WeatherDisplay:10.37,2013-05-24 03:12:00,
2013-05-23 22:17:00,72.0,66.9,30.03,ENE,72,0.0,2.3,84,0.00,CLR,,0.55,0.0,WeatherDisplay:10.37,2013-05-24 03:17:00,
2013-05-23 22:22:00,71.7,66.6,30.03,ENE,72,0.0,2.3,84,0.00,CLR,,0.55,0.0,WeatherDisplay:10.37,2013-05-24 03:22:00,
2013-05-23 22:27:00,71.4,66.7,30.02,ENE,72,1.4,3.5,85,0.00,CLR,,0.55,0.0,WeatherDisplay:10.37,2013-05-24 03:27:00,
2013-05-23 22:32:00,71.9,67.1,30.02,ENE,72,1.0,3.5,85,0.00,CLR,,0.55,0.0,WeatherDisplay:10.37,2013-05-24 03:32:00,
2013-05-23 22:37:00,72.2,66.7,30.01,ENE,72,0.6,3.5,83,0.00,CLR,,0.55,0.0,WeatherDisplay:10.37,2013-05-24 03:37:00,
2013-05-23 22:42:00,72.2,66.7,30.01,ENE,72,0.5,2.3,83,0.00,CLR,,0.55,0.0,WeatherDisplay:10.37,2013-05-24 03:42:00,
2013-05-23 22:47:00,72.6,67.1,30.01,ENE,75,2.3,5.8,83,0.00,CLR,,0.55,0.0,WeatherDisplay:10.37,2013-05-24 03:47:00,
2013-05-23 22:52:00,72.5,67.0,30.01,ENE,64,1.7,8.1,83,0.00,CLR,,0.55,0.0,WeatherDisplay:10.37,2013-05-24 03:52:00,
2013-05-23 22:57:00,73.0,66.8,30.01,East,88,1.2,3.5,81,0.00,CLR,,0.55,0.0,WeatherDisplay:10.37,2013-05-24 03:57:00,
2013-05-23 23:01:00,73.2,67.0,30.01,ESE,102,2.2,4.0,81,0.00,CLR,,0.55,0.0,WeatherDisplay:10.37,2013-05-24 04:01:00,
2013-05-23 23:06:00,72.7,66.9,30.02,East,95,1.1,6.0,82,0.00,CLR,,0.55,0.0,WeatherDisplay:10.37,2013-05-24 04:06:00,
2013-05-23 23:11:00,72.3,66.8,30.03,East,95,0.0,1.1,83,0.00,CLR,,0.55,0.0,WeatherDisplay:10.37,2013-05-24 04:11:00,
2013-05-23 23:16:00,72.1,67.0,30.03,East,95,0.1,1.1,84,0.00,CLR,,0.55,0.0,WeatherDisplay:10.37,2013-05-24 04:16:00,
2013-05-23 23:21:00,71.8,66.7,30.03,NE,51,3.0,6.9,84,0.00,CLR,,0.55,0.0,WeatherDisplay:10.37,2013-05-24 04:21:00,
2013-05-23 23:26:00,71.4,66.7,30.03,ENE,57,0.2,1.1,85,0.00,CLR,,0.55,0.0,WeatherDisplay:10.37,2013-05-24 04:26:00,
2013-05-23 23:31:00,71.2,66.8,30.02,ENE,57,0.0,0.0,86,0.00,CLR,,0.55,0.0,WeatherDisplay:10.37,2013-05-24 04:31:00,
2013-05-23 23:36:00,70.8,66.7,30.02,ENE,57,0.9,3.5,87,0.00,CLR,,0.55,0.0,WeatherDisplay:10.37,2013-05-24 04:36:00,
2013-05-23 23:41:00,71.0,66.9,30.02,ENE,60,1.2,5.0,87,0.00,CLR,,0.55,0.0,WeatherDisplay:10.37,2013-05-24 04:41:00,
2013-05-23 23:46:00,71.1,67.0,30.02,ENE,60,0.4,0.0,87,0.00,CLR,,0.55,0.0,WeatherDisplay:10.37,2013-05-24 04:46:00,
2013-05-23 23:51:00,70.9,66.8,30.02,ENE,60,0.2,1.1,87,0.00,CLR,,0.55,0.0,WeatherDisplay:10.37,2013-05-24 04:51:00,
2013-05-23 23:56:00,70.7,67.0,30.03,ENE,60,0.1,2.3,88,0.00,CLR,,0.55,0.0,WeatherDisplay:10.37,2013-05-24 04:56:00,